Time;durP1;ratioP1;P1;durP2;ratioP2;P2;SDS_P1;SDS_P2;PMS_P1;PMS_P2;Temp;Humidity;BMP_temperature;BMP_pressure;BME280_temperature;BME280_humidity;BME280_pressure;Samples;Min_cycle;Max_cycle;Signal;HPM_P1;HPM_P2
2022/04/08 00:01:15;;;;;;;27.23;7.70;;;12.60;99.90;;;;;;5010322;28;20512;-70
2022/04/08 00:03:41;;;;;;;16.65;7.55;;;12.60;99.90;;;;;;5011495;28;20022;-70
2022/04/08 00:06:08;;;;;;;20.02;8.93;;;12.50;99.90;;;;;;5009515;28;20068;-70
2022/04/08 00:08:34;;;;;;;21.08;7.70;;;12.60;99.90;;;;;;5005426;28;20348;-70
2022/04/08 00:11:01;;;;;;;17.55;7.18;;;12.60;99.90;;;;;;5007277;28;20033;-70
2022/04/08 00:13:27;;;;;;;13.75;7.88;;;12.60;99.90;;;;;;5004433;28;20037;-69
2022/04/08 00:15:52;;;;;;;14.35;6.80;;;12.50;99.90;;;;;;5006345;28;20516;-69
2022/04/08 00:18:19;;;;;;;15.70;7.22;;;12.60;99.90;;;;;;5004102;28;20042;-70
2022/04/08 00:20:45;;;;;;;16.23;6.63;;;12.50;99.90;;;;;;5003866;28;20030;-70
2022/04/08 00:23:11;;;;;;;8.02;5.18;;;12.50;99.90;;;;;;5009400;28;20548;-70
2022/04/08 00:25:37;;;;;;;12.77;5.65;;;12.50;99.90;;;;;;5010979;28;20026;-70
2022/04/08 00:28:03;;;;;;;17.58;6.38;;;12.50;99.90;;;;;;5004957;28;20038;-71
2022/04/08 00:30:29;;;;;;;15.32;4.97;;;12.50;99.90;;;;;;5011413;28;20046;-70
2022/04/08 00:32:58;;;;;;;22.90;5.78;;;12.50;99.90;;;;;;5010976;28;20060;-70
2022/04/08 00:35:25;;;;;;;22.73;7.50;;;12.50;99.90;;;;;;5010160;28;20030;-69
2022/04/08 00:37:50;;;;;;;6.90;5.00;;;12.50;99.90;;;;;;5008683;28;20520;-70
2022/04/08 00:40:17;;;;;;;13.15;6.82;;;12.50;99.90;;;;;;5010468;28;20026;-70
2022/04/08 00:42:43;;;;;;;13.27;6.32;;;12.50;99.90;;;;;;5010305;28;20026;-69
2022/04/08 00:45:09;;;;;;;14.43;5.60;;;12.50;99.90;;;;;;5009888;28;20529;-68
2022/04/08 00:47:37;;;;;;;19.08;6.10;;;12.50;99.90;;;;;;5007621;28;20450;-69
2022/04/08 00:50:06;;;;;;;13.20;5.68;;;12.50;99.90;;;;;;5010585;28;20434;-70
2022/04/08 00:52:34;;;;;;;9.43;5.50;;;12.40;99.90;;;;;;5009024;28;20022;-69
2022/04/08 00:55:03;;;;;;;15.63;5.97;;;12.40;99.90;;;;;;5006464;28;20022;-69
2022/04/08 00:57:29;;;;;;;12.05;5.95;;;12.40;99.90;;;;;;5008356;28;20490;-69
2022/04/08 00:59:56;;;;;;;15.48;6.00;;;12.40;99.90;;;;;;5009039;28;20052;-71
2022/04/08 01:02:22;;;;;;;12.43;6.97;;;12.40;99.90;;;;;;5010827;28;20037;-69
2022/04/08 01:04:47;;;;;;;19.50;5.82;;;12.40;99.90;;;;;;5007900;28;20034;-69
2022/04/08 01:07:14;;;;;;;20.90;5.95;;;12.40;99.90;;;;;;5007315;28;20022;-69
2022/04/08 01:09:40;;;;;;;15.63;7.43;;;12.40;99.90;;;;;;5013068;28;20029;-69
2022/04/08 01:12:06;;;;;;;12.32;7.03;;;12.40;99.90;;;;;;5013036;28;20520;-70
2022/04/08 01:14:32;;;;;;;11.00;5.05;;;12.40;99.90;;;;;;5014089;28;20033;-71
2022/04/08 01:16:57;;;;;;;10.75;5.22;;;12.40;99.90;;;;;;5011390;28;20037;-69
2022/04/08 01:19:24;;;;;;;12.15;5.28;;;12.40;99.90;;;;;;5004379;28;20048;-70
2022/04/08 01:21:51;;;;;;;14.55;6.80;;;12.40;99.90;;;;;;5007655;28;20486;-70
2022/04/08 01:24:18;;;;;;;15.02;5.45;;;12.40;99.90;;;;;;4999973;28;20049;-68
2022/04/08 01:26:43;;;;;;;18.58;6.95;;;12.40;99.90;;;;;;5009082;28;20033;-70
2022/04/08 01:29:09;;;;;;;16.05;7.72;;;12.40;99.90;;;;;;5007087;28;20452;-68
2022/04/08 01:31:35;;;;;;;23.40;5.35;;;12.40;99.90;;;;;;5008005;28;20026;-68
2022/04/08 01:34:01;;;;;;;16.88;6.63;;;12.40;99.90;;;;;;5006513;28;20559;-69
2022/04/08 01:36:27;;;;;;;12.85;6.00;;;12.40;99.90;;;;;;5008908;28;20044;-68
2022/04/08 01:38:53;;;;;;;14.02;6.20;;;12.30;99.90;;;;;;5006197;28;20038;-69
2022/04/08 01:41:20;;;;;;;16.05;5.63;;;12.30;99.90;;;;;;5008100;28;20049;-69
2022/04/08 01:43:46;;;;;;;18.05;6.53;;;12.30;99.90;;;;;;5003962;28;20033;-70
2022/04/08 01:46:11;;;;;;;16.63;5.70;;;12.30;99.90;;;;;;5006661;28;20023;-69
2022/04/08 01:48:37;;;;;;;15.95;5.38;;;12.30;99.90;;;;;;5009331;28;20029;-68
2022/04/08 01:51:04;;;;;;;17.05;7.93;;;12.30;99.90;;;;;;5007265;28;20105;-70
2022/04/08 01:53:29;;;;;;;12.60;7.35;;;12.30;99.90;;;;;;5009063;28;20330;-70
2022/04/08 01:55:55;;;;;;;28.23;9.05;;;12.30;99.90;;;;;;5009369;28;20360;-71
2022/04/08 01:58:21;;;;;;;14.75;7.68;;;12.40;99.90;;;;;;5009237;28;20042;-70
2022/04/08 02:00:46;;;;;;;17.27;5.60;;;12.30;99.90;;;;;;5007774;28;20387;-69
2022/04/08 02:03:17;;;;;;;12.57;5.35;;;12.30;99.90;;;;;;5009888;28;20025;-70
2022/04/08 02:05:43;;;;;;;17.70;5.20;;;12.40;99.90;;;;;;5009624;28;20025;-68
2022/04/08 02:08:09;;;;;;;20.48;5.55;;;12.40;99.90;;;;;;5008691;28;20033;-69
2022/04/08 02:10:34;;;;;;;15.57;4.78;;;12.40;99.90;;;;;;5010408;28;20482;-70
2022/04/08 02:13:00;;;;;;;15.15;5.38;;;12.40;99.90;;;;;;5006968;28;20032;-70
2022/04/08 02:15:35;;;;;;;30.00;9.45;;;12.30;99.90;;;;;;5008516;28;20084;-71
2022/04/08 02:18:03;;;;;;;12.30;5.38;;;12.30;99.90;;;;;;5008541;28;20111;-69
2022/04/08 02:20:30;;;;;;;17.55;5.00;;;12.40;99.90;;;;;;5006230;28;20017;-71
2022/04/08 02:22:56;;;;;;;22.05;6.07;;;12.30;99.90;;;;;;5007979;28;20068;-69
2022/04/08 02:25:22;;;;;;;9.98;4.82;;;12.30;99.90;;;;;;5007859;28;20022;-70
2022/04/08 02:27:48;;;;;;;17.98;4.47;;;12.40;99.90;;;;;;5006936;28;20034;-71
2022/04/08 02:30:15;;;;;;;8.82;4.90;;;12.30;99.90;;;;;;5007756;28;20046;-69
2022/04/08 02:32:41;;;;;;;14.98;5.00;;;12.30;99.90;;;;;;5005614;28;20113;-71
2022/04/08 02:35:07;;;;;;;16.35;4.05;;;12.30;99.90;;;;;;5006036;28;20045;-69
2022/04/08 02:37:33;;;;;;;22.33;5.10;;;12.30;99.90;;;;;;5006994;28;20528;-69
2022/04/08 02:39:58;;;;;;;12.48;5.22;;;12.30;99.90;;;;;;5008280;28;20124;-70
2022/04/08 02:42:24;;;;;;;15.02;5.78;;;12.30;99.90;;;;;;5007719;28;20026;-70
2022/04/08 02:44:50;;;;;;;15.63;4.57;;;12.30;99.90;;;;;;5008412;28;20389;-69
2022/04/08 02:47:16;;;;;;;13.23;4.55;;;12.40;99.90;;;;;;5008070;28;20120;-70
2022/04/08 02:49:41;;;;;;;20.13;5.80;;;12.40;99.90;;;;;;5007954;28;20034;-69
2022/04/08 02:52:07;;;;;;;18.50;6.82;;;12.40;99.90;;;;;;5006568;28;20092;-69
2022/04/08 02:54:33;;;;;;;14.63;5.18;;;12.40;99.90;;;;;;5007081;28;20014;-70
2022/04/08 02:56:58;;;;;;;18.05;4.97;;;12.40;99.90;;;;;;5009260;28;20030;-71
2022/04/08 02:59:24;;;;;;;12.88;5.22;;;12.40;99.90;;;;;;5007960;28;20033;-68
2022/04/08 03:01:50;;;;;;;16.08;4.45;;;12.40;99.90;;;;;;5004639;28;20042;-70
2022/04/08 03:04:16;;;;;;;17.42;5.50;;;12.40;99.90;;;;;;5007204;28;20072;-68
2022/04/08 03:06:41;;;;;;;17.50;5.05;;;12.40;99.90;;;;;;5007315;28;20022;-69
2022/04/08 03:09:07;;;;;;;20.67;6.57;;;12.40;99.90;;;;;;5008258;28;20101;-70
2022/04/08 03:11:33;;;;;;;21.83;4.85;;;12.40;99.90;;;;;;5010283;28;20036;-69
2022/04/08 03:14:02;;;;;;;23.05;5.97;;;12.40;99.90;;;;;;5007079;28;20033;-70
2022/04/08 03:16:28;;;;;;;18.95;7.15;;;12.30;99.90;;;;;;5004274;28;20037;-69
2022/04/08 03:18:54;;;;;;;17.92;5.05;;;12.40;99.90;;;;;;5009022;28;20037;-69
2022/04/08 03:21:20;;;;;;;15.00;6.10;;;12.40;99.90;;;;;;5006727;28;20022;-69
2022/04/08 03:23:47;;;;;;;19.05;5.60;;;12.40;99.90;;;;;;5005403;28;20632;-70
2022/04/08 03:26:12;;;;;;;22.35;5.93;;;12.40;99.90;;;;;;5008154;28;20022;-70
2022/04/08 03:28:38;;;;;;;14.32;5.43;;;12.40;99.90;;;;;;5000764;28;20030;-71
2022/04/08 03:31:04;;;;;;;16.17;6.85;;;12.50;99.90;;;;;;5005935;28;20069;-69
2022/04/08 03:33:30;;;;;;;9.43;4.18;;;12.40;99.90;;;;;;5007526;28;20034;-69
2022/04/08 03:35:55;;;;;;;18.85;5.20;;;12.40;99.90;;;;;;5005678;28;20042;-69
2022/04/08 03:38:21;;;;;;;24.17;7.35;;;12.50;99.90;;;;;;5008334;28;20030;-69
2022/04/08 03:40:48;;;;;;;17.20;4.30;;;12.40;99.90;;;;;;5008013;28;20044;-69
2022/04/08 03:43:14;;;;;;;12.52;5.55;;;12.40;99.90;;;;;;5006850;28;20033;-69
2022/04/08 03:45:40;;;;;;;21.92;4.53;;;12.40;99.90;;;;;;5005667;28;20042;-69
2022/04/08 03:48:08;;;;;;;20.60;5.03;;;12.40;99.90;;;;;;5004260;28;20069;-69
2022/04/08 03:50:35;;;;;;;19.55;6.80;;;12.40;99.90;;;;;;5013165;28;20018;-70
2022/04/08 03:53:01;;;;;;;14.32;5.43;;;12.40;99.90;;;;;;5010679;28;20567;-69
2022/04/08 03:55:26;;;;;;;24.90;5.80;;;12.40;99.90;;;;;;5011986;28;20116;-69
2022/04/08 03:57:52;;;;;;;19.48;6.65;;;12.30;99.90;;;;;;5010034;28;20038;-68
2022/04/08 04:00:18;;;;;;;17.48;5.10;;;12.30;99.90;;;;;;5011163;28;20181;-71
2022/04/08 04:02:44;;;;;;;12.55;4.40;;;12.40;99.90;;;;;;5010021;28;20100;-71
2022/04/08 04:05:10;;;;;;;16.95;5.45;;;12.50;99.90;;;;;;5009660;28;20026;-70
2022/04/08 04:07:36;;;;;;;20.65;6.22;;;12.40;99.90;;;;;;5010134;28;20026;-69
2022/04/08 04:10:02;;;;;;;18.67;6.22;;;12.40;99.90;;;;;;5010132;28;20125;-69
2022/04/08 04:12:28;;;;;;;20.25;4.97;;;12.40;99.90;;;;;;5012691;28;20038;-70
2022/04/08 04:14:57;;;;;;;27.70;5.43;;;12.50;99.90;;;;;;5008759;28;20068;-70
2022/04/08 04:17:23;;;;;;;21.23;5.38;;;12.50;99.90;;;;;;5013258;28;20026;-71
2022/04/08 04:19:50;;;;;;;13.38;5.38;;;12.40;99.90;;;;;;5010548;28;20435;-70
2022/04/08 04:22:16;;;;;;;19.50;5.75;;;12.40;99.90;;;;;;5012652;28;20455;-69
2022/04/08 04:24:42;;;;;;;11.43;5.38;;;12.40;99.90;;;;;;5005635;28;20026;-70
2022/04/08 04:27:07;;;;;;;23.55;5.70;;;12.40;99.90;;;;;;5009294;28;20060;-71
2022/04/08 04:29:33;;;;;;;19.75;4.93;;;12.40;99.90;;;;;;5005303;28;20054;-69
2022/04/08 04:31:59;;;;;;;19.48;5.53;;;12.40;99.90;;;;;;5001275;28;20045;-71
2022/04/08 04:34:26;;;;;;;16.85;5.13;;;12.50;99.90;;;;;;5003084;28;20056;-70
2022/04/08 04:36:52;;;;;;;14.80;4.88;;;12.60;99.90;;;;;;5010970;28;20024;-69
2022/04/08 04:39:18;;;;;;;14.43;4.93;;;12.50;99.90;;;;;;5009804;28;20113;-70
2022/04/08 04:41:44;;;;;;;25.98;6.20;;;12.50;99.90;;;;;;5011310;28;20028;-70
2022/04/08 04:44:09;;;;;;;21.50;7.30;;;12.60;99.90;;;;;;5006537;28;20021;-70
2022/04/08 04:46:36;;;;;;;17.27;4.05;;;12.60;99.90;;;;;;5009953;28;20040;-69
2022/04/08 04:49:02;;;;;;;39.03;8.93;;;12.60;99.90;;;;;;5010526;28;20036;-70
2022/04/08 04:51:30;;;;;;;18.52;6.68;;;12.60;99.90;;;;;;5013010;28;20582;-70
2022/04/08 04:53:57;;;;;;;21.73;6.15;;;12.70;99.90;;;;;;5007613;28;20477;-71
2022/04/08 04:56:23;;;;;;;25.42;7.20;;;12.70;99.90;;;;;;5011321;28;20113;-71
2022/04/08 04:58:49;;;;;;;16.90;5.75;;;12.70;99.90;;;;;;5010559;28;20150;-70
2022/04/08 05:01:14;;;;;;;18.70;6.65;;;12.70;99.90;;;;;;5013070;28;20091;-69
2022/04/08 05:03:40;;;;;;;21.48;5.82;;;12.80;99.90;;;;;;5008396;28;20026;-70
2022/04/08 05:06:06;;;;;;;20.08;5.05;;;12.70;99.90;;;;;;5009554;28;20022;-70
2022/04/08 05:08:32;;;;;;;19.33;5.93;;;12.70;99.90;;;;;;5010984;28;20040;-70
2022/04/08 05:10:58;;;;;;;24.00;6.57;;;12.80;99.90;;;;;;5016190;28;20490;-70
2022/04/08 05:13:24;;;;;;;20.73;6.13;;;12.80;99.90;;;;;;5009761;28;20069;-71
2022/04/08 05:15:49;;;;;;;16.45;5.60;;;12.90;99.90;;;;;;5012110;28;20026;-70
2022/04/08 05:18:15;;;;;;;25.08;6.80;;;12.90;99.90;;;;;;5012068;28;20081;-70
2022/04/08 05:20:41;;;;;;;27.02;7.40;;;13.00;99.90;;;;;;5012436;28;20029;-69
2022/04/08 05:23:07;;;;;;;19.45;6.22;;;13.00;99.90;;;;;;5004760;28;20033;-69
2022/04/08 05:25:33;;;;;;;23.25;6.75;;;13.10;99.90;;;;;;5010396;28;20026;-71
2022/04/08 05:27:58;;;;;;;22.13;6.53;;;13.10;99.90;;;;;;5009704;28;20488;-70
2022/04/08 05:30:24;;;;;;;26.95;5.25;;;13.10;99.90;;;;;;5011404;28;20038;-69
2022/04/08 05:32:50;;;;;;;22.88;5.85;;;13.00;99.90;;;;;;5008442;28;20028;-70
2022/04/08 05:35:17;;;;;;;18.92;6.15;;;13.00;99.90;;;;;;5008607;28;20029;-68
2022/04/08 05:37:45;;;;;;;18.40;5.57;;;13.00;99.90;;;;;;5009608;28;20017;-69
2022/04/08 05:40:14;;;;;;;21.45;6.95;;;13.00;99.90;;;;;;5007300;28;20504;-70
2022/04/08 05:42:42;;;;;;;25.67;5.60;;;12.90;99.90;;;;;;5010708;28;20026;-70
2022/04/08 05:45:09;;;;;;;22.95;6.43;;;12.90;99.90;;;;;;5009173;28;20026;-71
2022/04/08 05:47:35;;;;;;;25.02;4.72;;;13.00;99.90;;;;;;5009588;28;20022;-71
2022/04/08 05:50:03;;;;;;;17.75;5.25;;;13.00;99.90;;;;;;5011770;28;20097;-70
2022/04/08 05:52:29;;;;;;;26.80;6.78;;;13.10;99.90;;;;;;5009411;28;20018;-71
2022/04/08 05:54:54;;;;;;;33.65;5.88;;;13.10;99.90;;;;;;5007452;28;20454;-70
2022/04/08 05:57:20;;;;;;;30.10;6.07;;;13.10;99.90;;;;;;5009899;28;20512;-72
2022/04/08 05:59:49;;;;;;;22.17;6.57;;;13.20;99.90;;;;;;5010688;28;20019;-71
2022/04/08 06:02:15;;;;;;;28.77;7.22;;;13.20;99.90;;;;;;5008168;28;20030;-70
2022/04/08 06:04:42;;;;;;;24.55;6.75;;;13.30;99.90;;;;;;5008307;28;20079;-71
2022/04/08 06:07:08;;;;;;;24.15;6.20;;;13.40;99.90;;;;;;5008822;28;20033;-70
2022/04/08 06:09:34;;;;;;;16.17;5.88;;;13.50;99.90;;;;;;5003275;28;20113;-70
2022/04/08 06:12:00;;;;;;;20.70;6.05;;;13.50;99.90;;;;;;5006791;28;20484;-71
2022/04/08 06:14:26;;;;;;;19.13;5.65;;;13.50;99.90;;;;;;5010012;28;20030;-69
2022/04/08 06:16:52;;;;;;;17.70;5.10;;;13.50;99.90;;;;;;5008592;28;20030;-69
2022/04/08 06:19:18;;;;;;;22.25;5.50;;;13.70;99.90;;;;;;5005599;28;20116;-70
2022/04/08 06:21:44;;;;;;;25.10;5.50;;;13.70;99.90;;;;;;5004637;28;20436;-69
2022/04/08 06:24:10;;;;;;;18.38;5.68;;;13.80;99.90;;;;;;5009163;28;20025;-70
2022/04/08 06:26:36;;;;;;;21.58;5.85;;;13.90;99.90;;;;;;5008169;28;20026;-68
2022/04/08 06:29:04;;;;;;;22.27;7.07;;;14.10;99.90;;;;;;5007560;28;20033;-70
2022/04/08 06:31:33;;;;;;;17.17;6.68;;;14.20;99.90;;;;;;5009327;28;20042;-71
2022/04/08 06:34:00;;;;;;;16.65;4.75;;;14.30;99.90;;;;;;5008028;28;20117;-69
2022/04/08 06:36:27;;;;;;;16.92;5.13;;;14.40;99.90;;;;;;5010289;28;20072;-70
2022/04/08 06:38:53;;;;;;;28.15;4.93;;;14.50;99.90;;;;;;5010517;28;20059;-69
2022/04/08 06:41:19;;;;;;;19.70;5.13;;;14.50;99.90;;;;;;5006882;28;20082;-69
2022/04/08 06:43:44;;;;;;;20.45;4.90;;;14.60;99.90;;;;;;5002368;28;20049;-70
2022/04/08 06:46:11;;;;;;;15.13;5.63;;;14.60;99.90;;;;;;5006799;28;20109;-69
2022/04/08 06:48:37;;;;;;;22.77;5.43;;;14.70;99.90;;;;;;5003110;28;20018;-71
2022/04/08 06:51:04;;;;;;;21.83;5.85;;;14.70;99.90;;;;;;5007177;28;20490;-70
2022/04/08 06:53:30;;;;;;;15.23;7.13;;;14.80;99.90;;;;;;5006449;28;20052;-70
2022/04/08 06:55:56;;;;;;;22.00;5.32;;;14.90;99.90;;;;;;5008240;28;20101;-70
2022/04/08 06:58:26;;;;;;;12.20;4.55;;;15.00;99.90;;;;;;5007116;28;20477;-70
2022/04/08 07:00:55;;;;;;;23.00;6.38;;;15.10;99.90;;;;;;5009213;28;20025;-69
2022/04/08 07:03:21;;;;;;;19.05;5.53;;;15.20;99.90;;;;;;5009724;28;20082;-70
2022/04/08 07:05:47;;;;;;;20.10;5.15;;;15.20;99.90;;;;;;5009263;28;20037;-70
2022/04/08 07:08:13;;;;;;;17.58;5.32;;;15.30;99.90;;;;;;5006111;28;20029;-63
2022/04/08 07:10:39;;;;;;;18.67;6.72;;;15.20;99.90;;;;;;5006884;28;20120;-63
2022/04/08 07:13:05;;;;;;;16.52;4.75;;;15.20;99.90;;;;;;5008936;28;20038;-64
2022/04/08 07:15:31;;;;;;;18.80;4.82;;;15.30;99.90;;;;;;5008540;28;20030;-64
2022/04/08 07:17:57;;;;;;;17.63;6.13;;;15.30;99.90;;;;;;5008173;28;20033;-63
2022/04/08 07:20:29;;;;;;;22.17;5.25;;;15.40;99.90;;;;;;5002405;28;20033;-63
2022/04/08 07:22:57;;;;;;;13.50;4.90;;;15.50;99.90;;;;;;5011208;28;20497;-63
2022/04/08 07:25:23;;;;;;;15.82;4.57;;;15.50;99.90;;;;;;5014282;28;20402;-63
2022/04/08 07:27:51;;;;;;;18.98;5.93;;;15.50;99.90;;;;;;5012381;28;20026;-61
2022/04/08 07:30:20;;;;;;;16.83;6.55;;;15.60;99.90;;;;;;5008981;28;20516;-64
2022/04/08 07:32:48;;;;;;;16.95;6.82;;;15.60;99.90;;;;;;5011752;28;20108;-64
2022/04/08 07:35:14;;;;;;;18.02;6.30;;;15.80;99.90;;;;;;5006792;28;20033;-64
2022/04/08 07:37:40;;;;;;;14.85;4.72;;;16.00;99.90;;;;;;5003379;28;20485;-63
2022/04/08 07:40:11;;;;;;;28.88;7.25;;;16.30;99.90;;;;;;5002928;28;20029;-64
2022/04/08 07:42:37;;;;;;;23.85;5.82;;;16.40;99.90;;;;;;5004480;28;20065;-64
2022/04/08 07:45:04;;;;;;;24.55;5.20;;;16.60;99.90;;;;;;5004866;28;20037;-64
2022/04/08 07:47:30;;;;;;;17.83;5.85;;;16.90;99.90;;;;;;5003857;28;20076;-63
2022/04/08 07:50:09;;;;;;;20.90;5.93;;;17.00;99.90;;;;;;5005662;28;20064;-63
2022/04/08 07:52:35;;;;;;;21.27;5.85;;;17.20;99.90;;;;;;5011139;28;20030;-64
2022/04/08 07:55:01;;;;;;;14.75;6.18;;;17.30;99.90;;;;;;5004002;28;20113;-64
2022/04/08 07:57:27;;;;;;;15.75;5.15;;;17.50;99.90;;;;;;5003611;28;20034;-63
2022/04/08 07:59:53;;;;;;;15.38;4.68;;;17.80;99.90;;;;;;5011665;28;20033;-66
2022/04/08 08:02:18;;;;;;;19.10;4.75;;;18.00;99.90;;;;;;5011578;28;20057;-67
2022/04/08 08:04:44;;;;;;;18.90;4.90;;;18.10;99.90;;;;;;5012193;28;20037;-66
2022/04/08 08:07:10;;;;;;;12.88;4.88;;;18.10;99.90;;;;;;5006125;28;20034;-64
2022/04/08 08:09:36;;;;;;;10.50;5.30;;;18.30;99.90;;;;;;5003975;28;20038;-65
2022/04/08 08:12:04;;;;;;;15.63;4.80;;;18.20;99.90;;;;;;5004522;28;20069;-64
2022/04/08 08:14:30;;;;;;;13.05;4.38;;;18.30;99.90;;;;;;5003937;28;20123;-64
2022/04/08 08:16:56;;;;;;;17.63;4.95;;;18.50;99.90;;;;;;5003485;28;20041;-65
2022/04/08 08:19:22;;;;;;;20.35;4.78;;;18.60;99.90;;;;;;5004495;28;20025;-65
2022/04/08 08:21:48;;;;;;;9.10;4.60;;;18.70;99.90;;;;;;5004213;28;20026;-65
2022/04/08 08:24:13;;;;;;;17.50;4.90;;;18.80;99.90;;;;;;5005752;28;20116;-66
2022/04/08 08:26:40;;;;;;;21.23;6.35;;;18.90;99.90;;;;;;5003740;28;20114;-63
2022/04/08 08:29:05;;;;;;;17.92;5.15;;;18.90;99.90;;;;;;5004403;28;20033;-64
2022/04/08 08:31:31;;;;;;;16.35;5.57;;;19.00;99.90;;;;;;5004413;28;20037;-64
2022/04/08 08:33:57;;;;;;;15.70;4.45;;;19.10;99.90;;;;;;5004490;28;20049;-65
2022/04/08 08:36:23;;;;;;;22.10;5.00;;;19.20;99.90;;;;;;5003128;28;20033;-65
2022/04/08 08:38:49;;;;;;;23.55;5.63;;;19.20;99.90;;;;;;5002439;28;20157;-64
2022/04/08 08:41:19;;;;;;;18.23;4.90;;;19.20;99.90;;;;;;5002806;28;20478;-63
2022/04/08 08:43:47;;;;;;;16.65;5.97;;;19.20;99.90;;;;;;5003641;28;20026;-64
2022/04/08 08:46:15;;;;;;;16.00;5.00;;;19.00;99.90;;;;;;5004520;28;20481;-65
2022/04/08 08:48:44;;;;;;;20.50;6.47;;;19.10;99.90;;;;;;5002822;28;20469;-64
2022/04/08 08:51:12;;;;;;;15.68;5.63;;;19.00;99.90;;;;;;4999632;28;20025;-65
2022/04/08 08:53:39;;;;;;;23.90;5.05;;;18.80;99.90;;;;;;5006618;28;20030;-64
2022/04/08 08:56:06;;;;;;;14.65;6.07;;;18.90;99.90;;;;;;5011572;28;20034;-67
2022/04/08 08:58:34;;;;;;;22.23;4.88;;;19.10;99.90;;;;;;5009578;28;20125;-65
2022/04/08 09:01:00;;;;;;;19.70;5.35;;;19.10;99.90;;;;;;5003399;28;20026;-65
2022/04/08 09:03:33;;;;;;;18.92;5.15;;;18.90;99.90;;;;;;5005439;28;20166;-65
2022/04/08 09:06:09;;;;;;;12.85;4.75;;;18.90;99.90;;;;;;5009089;28;20018;-65
2022/04/08 09:08:36;;;;;;;18.02;5.97;;;18.90;99.90;;;;;;5007900;28;20033;-65
2022/04/08 09:11:04;;;;;;;16.40;5.35;;;19.20;99.90;;;;;;5011511;28;20026;-65
2022/04/08 09:13:30;;;;;;;23.88;6.88;;;19.50;99.90;;;;;;5009253;28;20033;-64
2022/04/08 09:16:00;;;;;;;16.88;4.82;;;19.70;99.90;;;;;;5012089;28;20083;-65
2022/04/08 09:18:32;;;;;;;14.88;5.53;;;19.60;99.90;;;;;;5008889;28;20425;-63
2022/04/08 09:21:00;;;;;;;16.08;4.55;;;19.40;99.90;;;;;;5008276;28;20014;-64
2022/04/08 09:23:28;;;;;;;19.95;5.30;;;19.50;99.90;;;;;;5010340;28;20022;-62
2022/04/08 09:26:01;;;;;;;15.65;4.60;;;19.40;99.90;;;;;;5011238;28;20359;-64
2022/04/08 09:28:36;;;;;;;14.93;4.43;;;19.60;99.90;;;;;;5004357;28;20114;-65
2022/04/08 09:31:03;;;;;;;12.10;4.82;;;19.90;99.90;;;;;;5008790;28;20551;-64
2022/04/08 09:33:29;;;;;;;17.17;5.22;;;19.80;99.90;;;;;;5009342;28;20083;-63
2022/04/08 09:35:57;;;;;;;18.33;5.93;;;19.60;99.90;;;;;;5011017;28;20111;-64
2022/04/08 09:38:25;;;;;;;18.48;6.35;;;19.60;99.90;;;;;;5005993;28;20030;-64
2022/04/08 09:41:02;;;;;;;17.52;5.80;;;19.30;99.90;;;;;;5011215;28;20029;-64
2022/04/08 09:43:36;;;;;;;10.23;5.00;;;19.20;99.90;;;;;;5010071;28;20030;-64
2022/04/08 09:46:15;;;;;;;19.83;6.13;;;19.50;99.90;;;;;;5012223;28;20018;-64
2022/04/08 09:48:41;;;;;;;16.35;6.68;;;19.60;99.90;;;;;;5010650;28;20025;-64
2022/04/08 09:51:09;;;;;;;22.67;5.97;;;19.50;99.90;;;;;;5011489;28;20156;-66
2022/04/08 09:53:40;;;;;;;21.33;6.30;;;19.30;99.90;;;;;;5011673;28;20076;-64
2022/04/08 09:56:12;;;;;;;15.38;5.57;;;19.30;99.90;;;;;;5009452;28;20143;-65
2022/04/08 09:58:40;;;;;;;20.58;6.10;;;19.60;99.90;;;;;;5010847;28;20029;-64
2022/04/08 10:01:07;;;;;;;13.82;5.47;;;19.50;99.90;;;;;;5009251;28;20025;-64
2022/04/08 10:03:34;;;;;;;12.98;5.00;;;19.80;99.90;;;;;;5011578;28;20018;-65
2022/04/08 10:06:00;;;;;;;22.00;6.18;;;20.00;99.90;;;;;;5011759;28;20098;-65
2022/04/08 10:08:27;;;;;;;13.70;4.47;;;20.00;99.90;;;;;;5009414;28;20030;-64
2022/04/08 10:11:06;;;;;;;17.27;5.53;;;20.00;99.90;;;;;;5010865;28;20072;-63
2022/04/08 10:14:13;;;;;;;15.20;4.13;;;20.00;99.90;;;;;;4991582;28;20569;-65
2022/04/08 10:16:40;;;;;;;13.23;4.72;;;20.10;99.90;;;;;;4997887;28;20032;-66
2022/04/08 10:19:07;;;;;;;9.32;3.78;;;19.90;99.90;;;;;;5007716;28;20025;-65
2022/04/08 10:21:40;;;;;;;32.17;7.25;;;19.80;99.90;;;;;;5011409;28;20481;-65
2022/04/08 10:24:10;;;;;;;12.27;4.25;;;19.70;99.90;;;;;;5007979;28;20045;-63
2022/04/08 10:27:12;;;;;;;19.83;7.30;;;19.80;99.90;;;;;;5008175;28;20034;-64
2022/04/08 10:29:38;;;;;;;14.63;5.10;;;19.90;99.90;;;;;;5002923;28;20041;-64
2022/04/08 10:32:13;;;;;;;10.88;3.97;;;19.90;99.90;;;;;;5009816;28;20506;-64
2022/04/08 10:34:38;;;;;;;10.35;3.83;;;19.90;99.90;;;;;;5009463;28;20030;-64
2022/04/08 10:37:15;;;;;;;15.07;4.20;;;19.80;99.90;;;;;;5009028;28;20032;-65
2022/04/08 10:39:42;;;;;;;7.53;2.75;;;19.80;99.90;;;;;;5008792;28;20025;-65
2022/04/08 10:42:20;;;;;;;10.32;4.55;;;19.90;99.90;;;;;;5008275;28;20030;-64
2022/04/08 10:44:46;;;;;;;14.70;4.55;;;19.90;99.90;;;;;;5010231;28;20102;-65
2022/04/08 10:47:14;;;;;;;13.90;3.47;;;20.00;99.90;;;;;;5011300;28;20161;-65
2022/04/08 10:49:49;;;;;;;10.82;4.03;;;19.90;99.90;;;;;;5009825;28;20021;-66
2022/04/08 10:52:16;;;;;;;9.43;3.60;;;19.90;99.90;;;;;;5009924;28;20033;-65
2022/04/08 10:54:42;;;;;;;12.48;4.55;;;19.60;99.90;;;;;;5007270;28;20080;-64
2022/04/08 10:57:08;;;;;;;16.58;4.95;;;19.70;99.90;;;;;;4990809;28;20042;-63
2022/04/08 10:59:34;;;;;;;10.10;3.35;;;19.50;99.90;;;;;;5012840;28;20049;-63
2022/04/08 11:02:05;;;;;;;13.80;3.58;;;19.40;99.90;;;;;;5015294;28;20509;-64
2022/04/08 11:04:32;;;;;;;16.00;4.38;;;19.50;99.90;;;;;;5014913;28;20030;-65
2022/04/08 11:07:06;;;;;;;10.98;3.15;;;19.60;99.90;;;;;;5013473;28;20034;-64
2022/04/08 11:09:32;;;;;;;9.38;3.90;;;19.70;99.90;;;;;;5006795;28;20022;-64
2022/04/08 11:11:58;;;;;;;13.32;3.47;;;19.80;99.90;;;;;;5012729;28;20038;-63
2022/04/08 11:14:28;;;;;;;12.93;4.05;;;19.80;99.90;;;;;;5012299;28;20026;-64
2022/04/08 11:16:54;;;;;;;7.90;3.72;;;19.70;99.90;;;;;;5008486;28;20021;-66
2022/04/08 11:19:21;;;;;;;10.80;3.72;;;19.70;99.90;;;;;;5011568;28;20076;-64
2022/04/08 11:21:48;;;;;;;17.20;4.20;;;19.60;99.90;;;;;;5010204;28;20018;-64
2022/04/08 11:24:16;;;;;;;12.73;3.13;;;19.40;99.90;;;;;;5012257;28;20613;-64
2022/04/08 11:27:00;;;;;;;18.85;3.78;;;19.40;99.90;;;;;;5008259;28;20049;-62
2022/04/08 11:29:27;;;;;;;7.47;2.97;;;19.20;99.90;;;;;;5004156;28;20064;-63
2022/04/08 11:32:10;;;;;;;7.07;3.67;;;19.20;99.90;;;;;;5005645;28;20034;-67
2022/04/08 11:34:52;;;;;;;16.85;4.18;;;19.30;99.90;;;;;;5009744;28;20053;-63
2022/04/08 11:37:26;;;;;;;16.17;4.30;;;19.30;99.90;;;;;;5009610;28;20033;-63
2022/04/08 11:39:58;;;;;;;12.95;3.55;;;19.20;99.90;;;;;;5025982;28;20034;-64
2022/04/08 11:42:26;;;;;;;12.63;3.42;;;19.10;99.90;;;;;;5009408;28;20022;-64
2022/04/08 11:44:52;;;;;;;20.60;4.88;;;19.10;99.90;;;;;;5015761;28;20076;-64
2022/04/08 11:47:28;;;;;;;18.73;4.88;;;19.20;99.90;;;;;;5012692;28;20457;-64
2022/04/08 11:50:02;;;;;;;12.07;4.30;;;19.10;99.90;;;;;;5013361;28;20083;-63
2022/04/08 11:52:27;;;;;;;19.65;3.80;;;19.00;99.90;;;;;;5013117;28;20065;-64
2022/04/08 11:55:01;;;;;;;15.45;3.92;;;19.00;99.90;;;;;;5010939;28;20099;-64
2022/04/08 11:57:29;;;;;;;13.70;4.35;;;19.20;99.90;;;;;;5012102;28;20026;-64
2022/04/08 11:59:55;;;;;;;13.60;4.97;;;19.30;99.90;;;;;;4995821;28;20519;-63
2022/04/08 12:02:20;;;;;;;16.67;4.00;;;19.30;99.90;;;;;;5012521;28;20029;-67
2022/04/08 12:04:49;;;;;;;14.70;4.80;;;19.30;99.90;;;;;;5008944;28;20018;-63
2022/04/08 12:07:23;;;;;;;20.60;4.75;;;19.40;99.90;;;;;;5008907;28;20478;-65
2022/04/08 12:09:51;;;;;;;11.45;3.78;;;19.20;99.90;;;;;;5011394;28;20030;-64
2022/04/08 12:12:28;;;;;;;10.15;3.72;;;19.00;99.90;;;;;;5012573;28;20387;-63
2022/04/08 12:14:54;;;;;;;9.02;3.35;;;18.80;99.90;;;;;;5013032;28;20117;-64
2022/04/08 12:17:21;;;;;;;8.23;3.28;;;18.70;99.90;;;;;;5012586;28;20397;-63
2022/04/08 12:19:51;;;;;;;12.68;3.22;;;18.80;99.90;;;;;;5027514;28;20021;-64
2022/04/08 12:22:18;;;;;;;15.25;4.53;;;19.00;99.90;;;;;;5011024;28;20033;-64
2022/04/08 12:24:48;;;;;;;19.35;4.18;;;19.00;99.90;;;;;;5007080;28;20462;-63
2022/04/08 12:27:19;;;;;;;13.93;3.25;;;19.10;99.90;;;;;;4969147;28;20537;-64
2022/04/08 12:29:46;;;;;;;10.98;3.75;;;19.30;99.90;;;;;;5011642;28;20505;-65
2022/04/08 12:32:16;;;;;;;13.80;3.40;;;19.40;99.90;;;;;;5001810;28;20041;-66
2022/04/08 12:34:42;;;;;;;13.30;4.03;;;19.60;99.90;;;;;;5010359;28;20576;-65
2022/04/08 12:37:08;;;;;;;9.57;3.33;;;19.80;99.90;;;;;;5013240;28;20164;-65
2022/04/08 12:39:34;;;;;;;12.70;3.58;;;19.90;99.90;;;;;;5013948;28;20040;-63